sensor_id;sensor_type;location;lat;lon;timestamp;pressure;altitude;pressure_sealevel;temperature;humidity
75521;BME280;64102;48.628;9.002;2023-01-28T00:02:17;96535.63;;;-1.82;87.01
75521;BME280;64102;48.628;9.002;2023-01-28T00:04:43;96530.69;;;-1.85;87.69
75521;BME280;64102;48.628;9.002;2023-01-28T00:07:08;96529.69;;;-1.81;86.73
75521;BME280;64102;48.628;9.002;2023-01-28T00:09:34;96522.22;;;-1.84;87.10
75521;BME280;64102;48.628;9.002;2023-01-28T00:11:59;96530.66;;;-1.84;87.65
75521;BME280;64102;48.628;9.002;2023-01-28T00:14:24;96533.19;;;-1.84;86.76
75521;BME280;64102;48.628;9.002;2023-01-28T00:16:50;96523.06;;;-1.84;86.33
75521;BME280;64102;48.628;9.002;2023-01-28T00:19:15;96526.50;;;-1.86;86.88
75521;BME280;64102;48.628;9.002;2023-01-28T00:21:40;96527.38;;;-1.87;87.37
75521;BME280;64102;48.628;9.002;2023-01-28T00:24:06;96531.69;;;-1.89;87.05
75521;BME280;64102;48.628;9.002;2023-01-28T00:26:33;96522.31;;;-1.87;86.80
75521;BME280;64102;48.628;9.002;2023-01-28T00:28:59;96524.81;;;-1.86;86.60
75521;BME280;64102;48.628;9.002;2023-01-28T00:31:25;96519.75;;;-1.86;86.71
75521;BME280;64102;48.628;9.002;2023-01-28T00:33:55;96526.41;;;-1.83;86.16
75521;BME280;64102;48.628;9.002;2023-01-28T00:36:22;96517.09;;;-1.83;86.36
75521;BME280;64102;48.628;9.002;2023-01-28T00:38:50;96519.63;;;-1.83;85.74
75521;BME280;64102;48.628;9.002;2023-01-28T00:41:18;96513.03;;;-1.87;86.93
75521;BME280;64102;48.628;9.002;2023-01-28T00:43:46;96524.81;;;-1.86;87.55
75521;BME280;64102;48.628;9.002;2023-01-28T00:46:12;96523.88;;;-1.83;87.30
75521;BME280;64102;48.628;9.002;2023-01-28T00:48:38;96519.59;;;-1.81;87.36
75521;BME280;64102;48.628;9.002;2023-01-28T00:51:06;96517.00;;;-1.79;85.66
75521;BME280;64102;48.628;9.002;2023-01-28T00:53:32;96523.06;;;-1.84;86.52
75521;BME280;64102;48.628;9.002;2023-01-28T00:56:00;96517.22;;;-1.86;86.55
75521;BME280;64102;48.628;9.002;2023-01-28T00:58:25;96526.34;;;-1.82;87.09
75521;BME280;64102;48.628;9.002;2023-01-28T01:00:51;96519.72;;;-1.84;86.86
75521;BME280;64102;48.628;9.002;2023-01-28T01:03:16;96518.00;;;-1.84;86.97
75521;BME280;64102;48.628;9.002;2023-01-28T01:05:42;96523.00;;;-1.82;86.34
75521;BME280;64102;48.628;9.002;2023-01-28T01:08:07;96523.06;;;-1.84;86.81
75521;BME280;64102;48.628;9.002;2023-01-28T01:10:33;96518.84;;;-1.83;86.38
75521;BME280;64102;48.628;9.002;2023-01-28T01:12:58;96525.47;;;-1.81;86.53
75521;BME280;64102;48.628;9.002;2023-01-28T01:15:24;96518.00;;;-1.84;87.29
75521;BME280;64102;48.628;9.002;2023-01-28T01:17:49;96515.41;;;-1.82;87.08
75521;BME280;64102;48.628;9.002;2023-01-28T01:20:18;96517.84;;;-1.79;87.50
75521;BME280;64102;48.628;9.002;2023-01-28T01:22:44;96522.94;;;-1.81;87.41
75521;BME280;64102;48.628;9.002;2023-01-28T01:25:10;96522.94;;;-1.81;86.19
75521;BME280;64102;48.628;9.002;2023-01-28T01:27:36;96531.28;;;-1.78;87.29
75521;BME280;64102;48.628;9.002;2023-01-28T01:30:02;96530.53;;;-1.81;87.49
75521;BME280;64102;48.628;9.002;2023-01-28T01:32:29;96534.72;;;-1.79;86.63
75521;BME280;64102;48.628;9.002;2023-01-28T01:34:55;96540.59;;;-1.79;87.21
75521;BME280;64102;48.628;9.002;2023-01-28T01:37:20;96536.47;;;-1.82;87.88
75521;BME280;64102;48.628;9.002;2023-01-28T01:39:45;96532.91;;;-1.76;87.33
75521;BME280;64102;48.628;9.002;2023-01-28T01:42:12;96536.31;;;-1.77;87.60
75521;BME280;64102;48.628;9.002;2023-01-28T01:44:58;96537.91;;;-1.74;87.45
75521;BME280;64102;48.628;9.002;2023-01-28T01:51:07;96533.19;;;-1.84;87.99
75521;BME280;64102;48.628;9.002;2023-01-28T01:53:37;96529.69;;;-1.81;88.47
75521;BME280;64102;48.628;9.002;2023-01-28T01:56:08;96535.63;;;-1.82;88.43
75521;BME280;64102;48.628;9.002;2023-01-28T01:58:37;96530.56;;;-1.82;88.17
75521;BME280;64102;48.628;9.002;2023-01-28T02:01:05;96540.75;;;-1.84;87.97
75521;BME280;64102;48.628;9.002;2023-01-28T02:06:12;96539.00;;;-1.82;88.55
75521;BME280;64102;48.628;9.002;2023-01-28T02:08:37;96549.94;;;-1.81;87.96
75521;BME280;64102;48.628;9.002;2023-01-28T02:11:04;96544.13;;;-1.83;88.91
75521;BME280;64102;48.628;9.002;2023-01-28T02:13:37;96544.00;;;-1.80;88.70
75521;BME280;64102;48.628;9.002;2023-01-28T02:16:04;96537.28;;;-1.81;88.32
75521;BME280;64102;48.628;9.002;2023-01-28T02:18:31;96537.19;;;-1.78;88.56
75521;BME280;64102;48.628;9.002;2023-01-28T02:26:38;96542.91;;;-1.73;87.67
75521;BME280;64102;48.628;9.002;2023-01-28T02:29:18;96543.06;;;-1.77;88.34
75521;BME280;64102;48.628;9.002;2023-01-28T02:31:53;96541.41;;;-1.78;87.92
75521;BME280;64102;48.628;9.002;2023-01-28T02:34:58;96547.13;;;-1.73;88.08
75521;BME280;64102;48.628;9.002;2023-01-28T02:40:29;96540.34;;;-1.71;87.48
75521;BME280;64102;48.628;9.002;2023-01-28T02:42:58;96535.16;;;-1.68;87.45
75521;BME280;64102;48.628;9.002;2023-01-28T02:45:26;96541.75;;;-1.64;87.55
75521;BME280;64102;48.628;9.002;2023-01-28T02:48:13;96541.84;;;-1.66;87.32
75521;BME280;64102;48.628;9.002;2023-01-28T02:51:07;96545.94;;;-1.63;87.35
75521;BME280;64102;48.628;9.002;2023-01-28T02:56:41;96547.66;;;-1.64;87.87
75521;BME280;64102;48.628;9.002;2023-01-28T02:59:48;96550.84;;;-1.59;87.06
75521;BME280;64102;48.628;9.002;2023-01-28T03:07:16;96555.19;;;-1.62;87.52
75521;BME280;64102;48.628;9.002;2023-01-28T03:09:44;96559.25;;;-1.58;87.38
75521;BME280;64102;48.628;9.002;2023-01-28T03:12:24;96556.63;;;-1.55;87.82
75521;BME280;64102;48.628;9.002;2023-01-28T03:15:13;96557.56;;;-1.58;87.36
75521;BME280;64102;48.628;9.002;2023-01-28T03:18:09;96551.72;;;-1.60;87.27
75521;BME280;64102;48.628;9.002;2023-01-28T03:23:57;96552.50;;;-1.58;87.33
75521;BME280;64102;48.628;9.002;2023-01-28T03:27:13;96551.56;;;-1.55;87.89
75521;BME280;64102;48.628;9.002;2023-01-28T03:30:06;96558.31;;;-1.56;87.18
75521;BME280;64102;48.628;9.002;2023-01-28T03:32:53;96556.94;;;-1.64;88.28
75521;BME280;64102;48.628;9.002;2023-01-28T03:35:38;96557.59;;;-1.59;87.01
75521;BME280;64102;48.628;9.002;2023-01-28T03:38:22;96559.31;;;-1.60;87.84
75521;BME280;64102;48.628;9.002;2023-01-28T03:41:01;96566.06;;;-1.60;88.21
75521;BME280;64102;48.628;9.002;2023-01-28T03:43:30;96562.75;;;-1.61;88.10
75521;BME280;64102;48.628;9.002;2023-01-28T03:45:56;96556.78;;;-1.60;88.19
75521;BME280;64102;48.628;9.002;2023-01-28T03:48:23;96560.97;;;-1.59;88.10
75521;BME280;64102;48.628;9.002;2023-01-28T03:50:49;96562.91;;;-1.65;88.87
75521;BME280;64102;48.628;9.002;2023-01-28T03:53:16;96568.88;;;-1.68;89.56
75521;BME280;64102;48.628;9.002;2023-01-28T03:55:42;96569.59;;;-1.64;88.96
75521;BME280;64102;48.628;9.002;2023-01-28T03:58:08;96572.84;;;-1.61;89.09
75521;BME280;64102;48.628;9.002;2023-01-28T04:00:34;96571.25;;;-1.63;89.37
75521;BME280;64102;48.628;9.002;2023-01-28T04:03:03;96575.47;;;-1.64;89.33
75521;BME280;64102;48.628;9.002;2023-01-28T04:05:28;96576.25;;;-1.62;89.62
75521;BME280;64102;48.628;9.002;2023-01-28T04:07:54;96569.59;;;-1.64;89.92
75521;BME280;64102;48.628;9.002;2023-01-28T04:10:20;96570.41;;;-1.64;89.04
75521;BME280;64102;48.628;9.002;2023-01-28T04:12:45;96568.75;;;-1.65;90.17
75521;BME280;64102;48.628;9.002;2023-01-28T04:15:16;96574.56;;;-1.61;90.04
75521;BME280;64102;48.628;9.002;2023-01-28T04:17:45;96571.97;;;-1.60;89.87
75521;BME280;64102;48.628;9.002;2023-01-28T04:20:11;96567.63;;;-1.56;89.66
75521;BME280;64102;48.628;9.002;2023-01-28T04:22:37;96571.91;;;-1.58;90.66
75521;BME280;64102;48.628;9.002;2023-01-28T04:25:02;96576.16;;;-1.59;89.79
75521;BME280;64102;48.628;9.002;2023-01-28T04:27:28;96583.91;;;-1.63;90.49
75521;BME280;64102;48.628;9.002;2023-01-28T04:29:53;96590.63;;;-1.62;90.61
75521;BME280;64102;48.628;9.002;2023-01-28T04:32:19;96589.63;;;-1.58;90.33
75521;BME280;64102;48.628;9.002;2023-01-28T04:34:44;96595.72;;;-1.64;90.90
75521;BME280;64102;48.628;9.002;2023-01-28T04:37:09;96588.28;;;-1.68;90.89
75521;BME280;64102;48.628;9.002;2023-01-28T04:39:35;96594.13;;;-1.66;90.53
75521;BME280;64102;48.628;9.002;2023-01-28T04:42:00;96594.13;;;-1.66;90.98
75521;BME280;64102;48.628;9.002;2023-01-28T04:44:25;96597.50;;;-1.66;90.84
75521;BME280;64102;48.628;9.002;2023-01-28T04:46:51;96599.22;;;-1.68;90.70
75521;BME280;64102;48.628;9.002;2023-01-28T04:49:16;96605.13;;;-1.67;90.71
75521;BME280;64102;48.628;9.002;2023-01-28T04:51:41;96599.13;;;-1.65;90.80
75521;BME280;64102;48.628;9.002;2023-01-28T04:54:07;96609.19;;;-1.63;90.94
75521;BME280;64102;48.628;9.002;2023-01-28T04:56:32;96605.69;;;-1.59;90.49
75521;BME280;64102;48.628;9.002;2023-01-28T04:58:57;96601.34;;;-1.56;90.74
75521;BME280;64102;48.628;9.002;2023-01-28T05:01:23;96605.47;;;-1.53;90.13
75521;BME280;64102;48.628;9.002;2023-01-28T05:03:49;96609.75;;;-1.55;90.29
75521;BME280;64102;48.628;9.002;2023-01-28T05:06:15;96604.66;;;-1.54;90.70
75521;BME280;64102;48.628;9.002;2023-01-28T05:08:40;96601.28;;;-1.54;90.42
75521;BME280;64102;48.628;9.002;2023-01-28T05:11:06;96610.66;;;-1.56;91.10
75521;BME280;64102;48.628;9.002;2023-01-28T05:13:31;96604.69;;;-1.55;90.76
75521;BME280;64102;48.628;9.002;2023-01-28T05:15:56;96608.00;;;-1.53;90.12
75521;BME280;64102;48.628;9.002;2023-01-28T05:18:22;96611.38;;;-1.53;90.89
75521;BME280;64102;48.628;9.002;2023-01-28T05:20:47;96612.09;;;-1.49;90.65
75521;BME280;64102;48.628;9.002;2023-01-28T05:23:12;96611.41;;;-1.54;89.88
75521;BME280;64102;48.628;9.002;2023-01-28T05:25:38;96613.91;;;-1.53;91.10
75521;BME280;64102;48.628;9.002;2023-01-28T05:28:03;96611.38;;;-1.53;90.73
75521;BME280;64102;48.628;9.002;2023-01-28T05:30:29;96616.34;;;-1.51;90.26
75521;BME280;64102;48.628;9.002;2023-01-28T05:32:55;96617.34;;;-1.55;90.46
75521;BME280;64102;48.628;9.002;2023-01-28T05:35:21;96614.09;;;-1.59;90.94
75521;BME280;64102;48.628;9.002;2023-01-28T05:37:47;96614.88;;;-1.57;90.83
75521;BME280;64102;48.628;9.002;2023-01-28T05:40:12;96610.59;;;-1.55;91.09
75521;BME280;64102;48.628;9.002;2023-01-28T05:42:38;96611.38;;;-1.53;91.10
75521;BME280;64102;48.628;9.002;2023-01-28T05:45:03;96609.81;;;-1.57;90.63
75521;BME280;64102;48.628;9.002;2023-01-28T05:47:29;96619.03;;;-1.56;91.15
75521;BME280;64102;48.628;9.002;2023-01-28T05:49:54;96614.81;;;-1.55;90.57
75521;BME280;64102;48.628;9.002;2023-01-28T05:52:19;96623.31;;;-1.56;91.16
75521;BME280;64102;48.628;9.002;2023-01-28T05:54:45;96628.25;;;-1.53;90.92
75521;BME280;64102;48.628;9.002;2023-01-28T05:57:10;96614.81;;;-1.55;90.59
75521;BME280;64102;48.628;9.002;2023-01-28T05:59:35;96624.19;;;-1.57;90.79
75521;BME280;64102;48.628;9.002;2023-01-28T06:02:01;96613.06;;;-1.53;90.75
75521;BME280;64102;48.628;9.002;2023-01-28T06:04:26;96622.53;;;-1.58;90.70
75521;BME280;64102;48.628;9.002;2023-01-28T06:06:52;96632.44;;;-1.52;90.80
75521;BME280;64102;48.628;9.002;2023-01-28T06:09:17;96629.91;;;-1.52;90.66
75521;BME280;64102;48.628;9.002;2023-01-28T06:11:42;96640.06;;;-1.54;90.39
75521;BME280;64102;48.628;9.002;2023-01-28T06:14:09;96640.34;;;-1.61;90.71
75521;BME280;64102;48.628;9.002;2023-01-28T06:16:34;96646.13;;;-1.58;91.35
75521;BME280;64102;48.628;9.002;2023-01-28T06:19:00;96646.78;;;-1.53;90.50
75521;BME280;64102;48.628;9.002;2023-01-28T06:21:25;96651.91;;;-1.54;90.70
75521;BME280;64102;48.628;9.002;2023-01-28T06:23:51;96652.47;;;-1.46;90.43
75521;BME280;64102;48.628;9.002;2023-01-28T06:26:16;96651.78;;;-1.51;90.78
75521;BME280;64102;48.628;9.002;2023-01-28T06:28:41;96656.81;;;-1.50;90.82
75521;BME280;64102;48.628;9.002;2023-01-28T06:31:07;96660.06;;;-1.46;90.77
75521;BME280;64102;48.628;9.002;2023-01-28T06:33:32;96665.66;;;-1.38;90.46
75521;BME280;64102;48.628;9.002;2023-01-28T06:35:57;96665.78;;;-1.41;90.25
75521;BME280;64102;48.628;9.002;2023-01-28T06:38:23;96679.31;;;-1.42;90.15
75521;BME280;64102;48.628;9.002;2023-01-28T06:40:52;96681.00;;;-1.43;90.24
75521;BME280;64102;48.628;9.002;2023-01-28T06:43:20;96685.16;;;-1.40;90.12
75521;BME280;64102;48.628;9.002;2023-01-28T06:45:45;96676.91;;;-1.45;90.39
75521;BME280;64102;48.628;9.002;2023-01-28T06:48:10;96678.56;;;-1.44;90.00
75521;BME280;64102;48.628;9.002;2023-01-28T06:50:36;96681.13;;;-1.46;89.80
75521;BME280;64102;48.628;9.002;2023-01-28T06:53:01;96683.78;;;-1.49;89.88
75521;BME280;64102;48.628;9.002;2023-01-28T06:55:27;96687.81;;;-1.43;89.86
75521;BME280;64102;48.628;9.002;2023-01-28T06:57:52;96695.41;;;-1.43;90.13
75521;BME280;64102;48.628;9.002;2023-01-28T07:00:18;96687.75;;;-1.42;89.69
75521;BME280;64102;48.628;9.002;2023-01-28T07:02:43;96692.06;;;-1.45;90.40
75521;BME280;64102;48.628;9.002;2023-01-28T07:05:09;96695.28;;;-1.40;89.87
75521;BME280;64102;48.628;9.002;2023-01-28T07:07:34;96695.09;;;-1.34;89.80
75521;BME280;64102;48.628;9.002;2023-01-28T07:10:00;96697.09;;;-1.44;90.06
75521;BME280;64102;48.628;9.002;2023-01-28T07:12:25;96696.16;;;-1.41;90.39
75521;BME280;64102;48.628;9.002;2023-01-28T07:14:51;96696.03;;;-1.38;90.10
75521;BME280;64102;48.628;9.002;2023-01-28T07:17:16;96699.38;;;-1.36;89.97
75521;BME280;64102;48.628;9.002;2023-01-28T07:19:41;96698.38;;;-1.32;90.20
75521;BME280;64102;48.628;9.002;2023-01-28T07:22:07;96701.78;;;-1.33;89.61
75521;BME280;64102;48.628;9.002;2023-01-28T07:24:32;96700.16;;;-1.34;89.51
75521;BME280;64102;48.628;9.002;2023-01-28T07:26:58;96696.13;;;-1.40;89.76
75521;BME280;64102;48.628;9.002;2023-01-28T07:29:23;96703.56;;;-1.35;90.04
75521;BME280;64102;48.628;9.002;2023-01-28T07:31:48;96708.53;;;-1.33;89.67
75521;BME280;64102;48.628;9.002;2023-01-28T07:34:14;96706.66;;;-1.27;89.58
75521;BME280;64102;48.628;9.002;2023-01-28T07:36:39;96707.53;;;-1.28;89.30
75521;BME280;64102;48.628;9.002;2023-01-28T07:39:05;96702.34;;;-1.25;89.68
75521;BME280;64102;48.628;9.002;2023-01-28T07:41:32;96707.31;;;-1.22;88.68
75521;BME280;64102;48.628;9.002;2023-01-28T07:43:57;96711.66;;;-1.25;89.19
75521;BME280;64102;48.628;9.002;2023-01-28T07:46:22;96714.84;;;-1.20;88.92
75521;BME280;64102;48.628;9.002;2023-01-28T07:48:48;96713.38;;;-1.26;88.83
75521;BME280;64102;48.628;9.002;2023-01-28T07:51:13;96721.56;;;-1.19;88.99
75521;BME280;64102;48.628;9.002;2023-01-28T07:53:39;96721.50;;;-1.16;88.47
75521;BME280;64102;48.628;9.002;2023-01-28T07:56:05;96708.72;;;-1.13;88.15
75521;BME280;64102;48.628;9.002;2023-01-28T07:58:30;96718.69;;;-1.09;87.37
75521;BME280;64102;48.628;9.002;2023-01-28T08:00:58;96727.72;;;-1.02;87.73
75521;BME280;64102;48.628;9.002;2023-01-28T08:03:24;96727.81;;;-1.05;88.23
75521;BME280;64102;48.628;9.002;2023-01-28T08:05:51;96731.63;;;-0.93;88.19
75521;BME280;64102;48.628;9.002;2023-01-28T08:08:17;96724.00;;;-0.92;87.96
75521;BME280;64102;48.628;9.002;2023-01-28T08:10:43;96728.91;;;-0.87;87.77
75521;BME280;64102;48.628;9.002;2023-01-28T08:13:10;96738.25;;;-0.89;87.38
75521;BME280;64102;48.628;9.002;2023-01-28T08:15:36;96730.72;;;-0.91;87.69
75521;BME280;64102;48.628;9.002;2023-01-28T08:18:04;96740.06;;;-0.93;88.54
75521;BME280;64102;48.628;9.002;2023-01-28T08:20:30;96739.97;;;-0.89;87.93
75521;BME280;64102;48.628;9.002;2023-01-28T08:23:16;96740.41;;;-0.78;87.61
75521;BME280;64102;48.628;9.002;2023-01-28T08:25:42;96741.28;;;-0.79;87.25
75521;BME280;64102;48.628;9.002;2023-01-28T08:28:08;96742.94;;;-0.78;87.20
75521;BME280;64102;48.628;9.002;2023-01-28T08:30:35;96745.38;;;-0.75;87.32
75521;BME280;64102;48.628;9.002;2023-01-28T08:33:05;96742.91;;;-0.77;87.53
75521;BME280;64102;48.628;9.002;2023-01-28T08:35:31;96745.31;;;-0.74;87.18
75521;BME280;64102;48.628;9.002;2023-01-28T08:37:59;96750.09;;;-0.66;87.58
75521;BME280;64102;48.628;9.002;2023-01-28T08:40:24;96745.88;;;-0.66;86.86
75521;BME280;64102;48.628;9.002;2023-01-28T08:42:50;96749.69;;;-0.54;87.20
75521;BME280;64102;48.628;9.002;2023-01-28T08:45:17;96755.47;;;-0.51;86.38
75521;BME280;64102;48.628;9.002;2023-01-28T08:48:08;96751.22;;;-0.50;86.95
75521;BME280;64102;48.628;9.002;2023-01-28T08:50:34;96756.97;;;-0.45;87.06
75521;BME280;64102;48.628;9.002;2023-01-28T08:53:04;96759.59;;;-0.48;86.63
75521;BME280;64102;48.628;9.002;2023-01-28T08:55:29;96756.31;;;-0.50;86.60
75521;BME280;64102;48.628;9.002;2023-01-28T08:57:56;96755.88;;;-0.39;87.10
75521;BME280;64102;48.628;9.002;2023-01-28T09:00:21;96752.53;;;-0.40;87.21
75521;BME280;64102;48.628;9.002;2023-01-28T09:02:50;96755.13;;;-0.41;86.35
75521;BME280;64102;48.628;9.002;2023-01-28T09:05:16;96754.34;;;-0.43;85.49
75521;BME280;64102;48.628;9.002;2023-01-28T09:07:42;96760.41;;;-0.48;85.53
75521;BME280;64102;48.628;9.002;2023-01-28T09:10:07;96761.09;;;-0.42;85.46
75521;BME280;64102;48.628;9.002;2023-01-28T09:12:33;96761.19;;;-0.46;85.57
75521;BME280;64102;48.628;9.002;2023-01-28T09:15:00;96767.19;;;-0.48;86.26
75521;BME280;64102;48.628;9.002;2023-01-28T09:17:25;96759.03;;;-0.33;86.27
75521;BME280;64102;48.628;9.002;2023-01-28T09:19:50;96767.34;;;-0.29;85.56
75521;BME280;64102;48.628;9.002;2023-01-28T09:22:16;96765.31;;;-0.20;86.21
75521;BME280;64102;48.628;9.002;2023-01-28T09:24:42;96769.84;;;-0.28;85.82
75521;BME280;64102;48.628;9.002;2023-01-28T09:27:07;96766.97;;;-0.19;86.47
75521;BME280;64102;48.628;9.002;2023-01-28T09:29:33;96776.03;;;-0.13;84.55
75521;BME280;64102;48.628;9.002;2023-01-28T09:31:59;96778.03;;;0.02;84.39
75521;BME280;64102;48.628;9.002;2023-01-28T09:34:24;96777.78;;;0.08;84.88
75521;BME280;64102;48.628;9.002;2023-01-28T09:36:50;96777.84;;;0.07;84.21
75521;BME280;64102;48.628;9.002;2023-01-28T09:39:15;96785.22;;;0.13;83.32
75521;BME280;64102;48.628;9.002;2023-01-28T09:42:18;96781.03;;;0.12;83.11
75521;BME280;64102;48.628;9.002;2023-01-28T09:45:00;96791.41;;;0.06;83.20
75521;BME280;64102;48.628;9.002;2023-01-28T09:50:25;96793.31;;;0.22;83.20
75521;BME280;64102;48.628;9.002;2023-01-28T09:52:56;96792.16;;;0.31;82.49
75521;BME280;64102;48.628;9.002;2023-01-28T09:55:33;96796.09;;;0.38;82.25
75521;BME280;64102;48.628;9.002;2023-01-28T09:57:59;96802.91;;;0.36;82.18
75521;BME280;64102;48.628;9.002;2023-01-28T10:09:12;96794.06;;;0.46;81.22
75521;BME280;64102;48.628;9.002;2023-01-28T10:19:29;96785.09;;;0.37;81.05
75521;BME280;64102;48.628;9.002;2023-01-28T10:22:23;96792.72;;;0.16;81.45
75521;BME280;64102;48.628;9.002;2023-01-28T10:25:01;96788.44;;;0.18;81.37
75521;BME280;64102;48.628;9.002;2023-01-28T10:27:32;96790.88;;;0.19;82.09
75521;BME280;64102;48.628;9.002;2023-01-28T10:29:59;96789.97;;;0.22;81.67
75521;BME280;64102;48.628;9.002;2023-01-28T10:32:37;96783.41;;;0.38;80.97
75521;BME280;64102;48.628;9.002;2023-01-28T10:35:07;96783.16;;;0.44;81.52
75521;BME280;64102;48.628;9.002;2023-01-28T10:37:34;96784.25;;;0.59;80.88
75521;BME280;64102;48.628;9.002;2023-01-28T10:40:01;96782.34;;;0.64;80.12
75521;BME280;64102;48.628;9.002;2023-01-28T10:42:30;96783.31;;;0.61;80.27
75521;BME280;64102;48.628;9.002;2023-01-28T10:45:44;96776.91;;;0.73;80.37
75521;BME280;64102;48.628;9.002;2023-01-28T10:47:58;96781.06;;;0.75;80.40
75521;BME280;64102;48.628;9.002;2023-01-28T10:50:28;96782.69;;;0.76;80.30
75521;BME280;64102;48.628;9.002;2023-01-28T10:53:05;96776.13;;;0.51;80.63
75521;BME280;64102;48.628;9.002;2023-01-28T10:55:56;96781.00;;;0.55;81.21
75521;BME280;64102;48.628;9.002;2023-01-28T10:58:24;96768.16;;;0.38;80.38
75521;BME280;64102;48.628;9.002;2023-01-28T11:00:53;96772.72;;;0.30;81.24
75521;BME280;64102;48.628;9.002;2023-01-28T11:03:19;96777.84;;;0.28;80.97
75521;BME280;64102;48.628;9.002;2023-01-28T11:05:52;96773.66;;;0.27;81.00
75521;BME280;64102;48.628;9.002;2023-01-28T11:08:19;96781.38;;;0.24;81.55
75521;BME280;64102;48.628;9.002;2023-01-28T11:10:45;96780.56;;;0.24;81.27
75521;BME280;64102;48.628;9.002;2023-01-28T11:13:17;96780.22;;;0.33;81.28
75521;BME280;64102;48.628;9.002;2023-01-28T11:16:04;96783.16;;;0.44;83.06
75521;BME280;64102;48.628;9.002;2023-01-28T11:18:38;96780.97;;;0.57;81.74
75521;BME280;64102;48.628;9.002;2023-01-28T11:21:16;96777.91;;;0.49;80.80
75521;BME280;64102;48.628;9.002;2023-01-28T11:23:59;96775.28;;;0.50;80.39
75521;BME280;64102;48.628;9.002;2023-01-28T11:26:34;96781.28;;;0.49;81.41
75521;BME280;64102;48.628;9.002;2023-01-28T11:29:00;96781.16;;;0.72;80.95
75521;BME280;64102;48.628;9.002;2023-01-28T11:31:26;96775.22;;;0.94;78.17
75521;BME280;64102;48.628;9.002;2023-01-28T11:34:00;96775.47;;;1.08;77.77
75521;BME280;64102;48.628;9.002;2023-01-28T11:36:31;96777.91;;;1.11;77.64
75521;BME280;64102;48.628;9.002;2023-01-28T11:38:59;96781.06;;;0.96;78.13
75521;BME280;64102;48.628;9.002;2023-01-28T11:41:33;96787.28;;;0.88;79.04
75521;BME280;64102;48.628;9.002;2023-01-28T11:44:00;96784.75;;;0.88;79.08
75521;BME280;64102;48.628;9.002;2023-01-28T11:51:54;96786.31;;;0.71;79.83
75521;BME280;64102;48.628;9.002;2023-01-28T12:03:40;96776.63;;;0.17;83.73
75521;BME280;64102;48.628;9.002;2023-01-28T12:11:54;96776.66;;;-0.07;85.39
75521;BME280;64102;48.628;9.002;2023-01-28T12:22:59;96780.66;;;-0.23;86.64
75521;BME280;64102;48.628;9.002;2023-01-28T12:41:18;96779.47;;;-0.14;86.86
75521;BME280;64102;48.628;9.002;2023-01-28T12:43:50;96780.06;;;-0.08;86.24
75521;BME280;64102;48.628;9.002;2023-01-28T12:48:50;96793.75;;;-0.12;86.40
75521;BME280;64102;48.628;9.002;2023-01-28T12:51:24;96788.84;;;-0.16;85.90
75521;BME280;64102;48.628;9.002;2023-01-28T12:56:43;96777.69;;;-0.12;85.79
75521;BME280;64102;48.628;9.002;2023-01-28T13:01:42;96772.28;;;-0.03;85.49
75521;BME280;64102;48.628;9.002;2023-01-28T13:04:16;96776.66;;;-0.07;85.81
75521;BME280;64102;48.628;9.002;2023-01-28T13:06:56;96771.78;;;-0.13;85.47
75521;BME280;64102;48.628;9.002;2023-01-28T13:09:24;96775.13;;;-0.11;85.34
75521;BME280;64102;48.628;9.002;2023-01-28T13:11:52;96776.88;;;-0.13;85.66
75521;BME280;64102;48.628;9.002;2023-01-28T13:14:24;96776.94;;;-0.14;85.00
75521;BME280;64102;48.628;9.002;2023-01-28T13:16:51;96781.25;;;-0.16;84.86
75521;BME280;64102;48.628;9.002;2023-01-28T13:21:41;96777.66;;;-0.11;85.39
75521;BME280;64102;48.628;9.002;2023-01-28T13:26:54;96779.41;;;-0.13;85.21
75521;BME280;64102;48.628;9.002;2023-01-28T13:29:21;96776.88;;;-0.13;84.88
75521;BME280;64102;48.628;9.002;2023-01-28T13:31:54;96775.25;;;-0.14;84.94
75521;BME280;64102;48.628;9.002;2023-01-28T13:34:33;96786.13;;;-0.12;85.24
75521;BME280;64102;48.628;9.002;2023-01-28T13:37:27;96787.25;;;-0.19;85.75
75521;BME280;64102;48.628;9.002;2023-01-28T13:42:37;96783.94;;;-0.21;85.13
75521;BME280;64102;48.628;9.002;2023-01-28T13:45:20;96782.22;;;-0.20;85.45
75521;BME280;64102;48.628;9.002;2023-01-28T13:47:49;96786.44;;;-0.19;86.09
75521;BME280;64102;48.628;9.002;2023-01-28T13:50:20;96788.88;;;-0.18;85.90
75521;BME280;64102;48.628;9.002;2023-01-28T13:56:25;96789.50;;;-0.11;85.43
75521;BME280;64102;48.628;9.002;2023-01-28T14:04:29;96801.47;;;-0.15;85.98
75521;BME280;64102;48.628;9.002;2023-01-28T14:07:10;96795.25;;;-0.06;85.59
75521;BME280;64102;48.628;9.002;2023-01-28T14:12:55;96794.06;;;0.03;84.59
75521;BME280;64102;48.628;9.002;2023-01-28T14:15:45;96800.72;;;0.05;85.54
75521;BME280;64102;48.628;9.002;2023-01-28T14:18:25;96803.44;;;0.00;84.98
75521;BME280;64102;48.628;9.002;2023-01-28T14:20:52;96806.81;;;0.01;85.27
75521;BME280;64102;48.628;9.002;2023-01-28T14:23:20;96794.59;;;0.11;84.94
75521;BME280;64102;48.628;9.002;2023-01-28T14:31:15;96812.00;;;-0.02;85.51
75521;BME280;64102;48.628;9.002;2023-01-28T14:33:42;96812.38;;;-0.13;85.86
75521;BME280;64102;48.628;9.002;2023-01-28T14:36:11;96823.16;;;-0.06;86.23
75521;BME280;64102;48.628;9.002;2023-01-28T14:38:39;96822.81;;;0.03;85.34
75521;BME280;64102;48.628;9.002;2023-01-28T14:41:06;96826.09;;;0.05;85.40
75521;BME280;64102;48.628;9.002;2023-01-28T14:43:33;96820.97;;;0.07;85.83
75521;BME280;64102;48.628;9.002;2023-01-28T14:48:47;96829.13;;;-0.09;86.05
75521;BME280;64102;48.628;9.002;2023-01-28T14:54:21;96833.47;;;-0.11;86.31
75521;BME280;64102;48.628;9.002;2023-01-28T14:56:57;96835.50;;;-0.20;87.14
75521;BME280;64102;48.628;9.002;2023-01-28T14:59:30;96843.97;;;-0.21;87.67
75521;BME280;64102;48.628;9.002;2023-01-28T15:01:59;96843.22;;;-0.23;87.45
75521;BME280;64102;48.628;9.002;2023-01-28T15:04:29;96844.09;;;-0.24;88.15
75521;BME280;64102;48.628;9.002;2023-01-28T15:06:55;96844.09;;;-0.24;87.16
75521;BME280;64102;48.628;9.002;2023-01-28T15:09:22;96850.13;;;-0.27;87.42
75521;BME280;64102;48.628;9.002;2023-01-28T15:11:51;96857.72;;;-0.27;88.32
75521;BME280;64102;48.628;9.002;2023-01-28T15:14:25;96851.69;;;-0.24;87.85
75521;BME280;64102;48.628;9.002;2023-01-28T15:16:51;96859.44;;;-0.27;87.77
75521;BME280;64102;48.628;9.002;2023-01-28T15:19:31;96862.84;;;-0.28;88.14
75521;BME280;64102;48.628;9.002;2023-01-28T15:22:03;96858.69;;;-0.31;88.58
75521;BME280;64102;48.628;9.002;2023-01-28T15:24:59;96859.63;;;-0.33;88.65